sensor_id;sensor_type;location;lat;lon;timestamp;P1;durP1;ratioP1;P2;durP2;ratioP2
32200;SDS011;18701;45.588;5.288;2023-09-19T00:01:32;6.65;;;1.25;;
32200;SDS011;18701;45.588;5.288;2023-09-19T00:03:58;2.97;;;0.88;;
32200;SDS011;18701;45.588;5.288;2023-09-19T00:06:24;6.03;;;0.80;;
32200;SDS011;18701;45.588;5.288;2023-09-19T00:08:51;5.43;;;0.70;;
32200;SDS011;18701;45.588;5.288;2023-09-19T00:11:17;5.95;;;0.73;;
32200;SDS011;18701;45.588;5.288;2023-09-19T00:13:43;5.55;;;0.90;;
32200;SDS011;18701;45.588;5.288;2023-09-19T00:16:09;8.60;;;1.10;;
32200;SDS011;18701;45.588;5.288;2023-09-19T00:18:36;3.63;;;1.20;;
32200;SDS011;18701;45.588;5.288;2023-09-19T00:21:02;4.35;;;1.08;;
32200;SDS011;18701;45.588;5.288;2023-09-19T00:23:30;3.75;;;0.70;;
32200;SDS011;18701;45.588;5.288;2023-09-19T00:26:00;5.68;;;0.88;;
32200;SDS011;18701;45.588;5.288;2023-09-19T00:28:26;11.95;;;1.77;;
32200;SDS011;18701;45.588;5.288;2023-09-19T00:30:52;2.75;;;0.68;;
32200;SDS011;18701;45.588;5.288;2023-09-19T00:33:20;4.30;;;0.88;;
32200;SDS011;18701;45.588;5.288;2023-09-19T00:35:50;3.67;;;1.00;;
32200;SDS011;18701;45.588;5.288;2023-09-19T00:38:18;4.93;;;0.85;;
32200;SDS011;18701;45.588;5.288;2023-09-19T00:40:49;3.55;;;1.17;;
32200;SDS011;18701;45.588;5.288;2023-09-19T00:43:16;5.43;;;1.35;;
32200;SDS011;18701;45.588;5.288;2023-09-19T00:45:43;3.55;;;1.00;;
32200;SDS011;18701;45.588;5.288;2023-09-19T00:48:10;7.05;;;1.10;;
32200;SDS011;18701;45.588;5.288;2023-09-19T00:50:36;4.95;;;1.42;;
32200;SDS011;18701;45.588;5.288;2023-09-19T00:53:04;7.57;;;0.98;;
32200;SDS011;18701;45.588;5.288;2023-09-19T00:55:33;9.57;;;1.25;;
32200;SDS011;18701;45.588;5.288;2023-09-19T00:58:00;6.82;;;1.63;;
32200;SDS011;18701;45.588;5.288;2023-09-19T01:00:26;6.80;;;1.17;;
32200;SDS011;18701;45.588;5.288;2023-09-19T01:02:52;5.25;;;1.10;;
32200;SDS011;18701;45.588;5.288;2023-09-19T01:05:18;7.65;;;1.33;;
32200;SDS011;18701;45.588;5.288;2023-09-19T01:07:44;12.07;;;2.40;;
32200;SDS011;18701;45.588;5.288;2023-09-19T01:10:14;10.00;;;1.52;;
32200;SDS011;18701;45.588;5.288;2023-09-19T01:21:05;11.82;;;1.27;;
32200;SDS011;18701;45.588;5.288;2023-09-19T01:29:39;6.95;;;1.38;;
32200;SDS011;18701;45.588;5.288;2023-09-19T01:32:09;6.07;;;1.37;;
32200;SDS011;18701;45.588;5.288;2023-09-19T01:34:45;5.65;;;1.17;;
32200;SDS011;18701;45.588;5.288;2023-09-19T01:37:18;9.95;;;1.55;;
32200;SDS011;18701;45.588;5.288;2023-09-19T01:39:53;5.90;;;1.30;;
32200;SDS011;18701;45.588;5.288;2023-09-19T01:47:33;7.20;;;1.42;;
32200;SDS011;18701;45.588;5.288;2023-09-19T01:50:27;5.88;;;1.60;;
32200;SDS011;18701;45.588;5.288;2023-09-19T01:52:59;10.20;;;1.42;;
32200;SDS011;18701;45.588;5.288;2023-09-19T01:55:46;6.13;;;1.20;;
32200;SDS011;18701;45.588;5.288;2023-09-19T02:00:58;3.58;;;1.08;;
32200;SDS011;18701;45.588;5.288;2023-09-19T02:03:26;5.28;;;1.27;;
32200;SDS011;18701;45.588;5.288;2023-09-19T02:05:53;8.63;;;1.17;;
32200;SDS011;18701;45.588;5.288;2023-09-19T02:08:20;13.52;;;1.40;;
32200;SDS011;18701;45.588;5.288;2023-09-19T02:10:49;7.00;;;1.27;;
32200;SDS011;18701;45.588;5.288;2023-09-19T02:13:18;9.20;;;1.15;;
32200;SDS011;18701;45.588;5.288;2023-09-19T02:15:45;3.80;;;0.80;;
32200;SDS011;18701;45.588;5.288;2023-09-19T02:18:14;8.20;;;1.30;;
32200;SDS011;18701;45.588;5.288;2023-09-19T02:20:39;4.15;;;1.08;;
32200;SDS011;18701;45.588;5.288;2023-09-19T02:23:05;4.75;;;0.98;;
32200;SDS011;18701;45.588;5.288;2023-09-19T02:25:32;6.82;;;1.13;;
32200;SDS011;18701;45.588;5.288;2023-09-19T02:27:58;7.72;;;1.25;;
32200;SDS011;18701;45.588;5.288;2023-09-19T02:30:26;7.30;;;1.75;;
32200;SDS011;18701;45.588;5.288;2023-09-19T02:32:52;3.67;;;1.35;;
32200;SDS011;18701;45.588;5.288;2023-09-19T02:35:17;3.47;;;1.08;;
32200;SDS011;18701;45.588;5.288;2023-09-19T02:37:46;6.82;;;1.55;;
32200;SDS011;18701;45.588;5.288;2023-09-19T02:40:12;10.75;;;1.20;;
32200;SDS011;18701;45.588;5.288;2023-09-19T02:42:44;5.45;;;1.73;;
32200;SDS011;18701;45.588;5.288;2023-09-19T02:45:15;5.70;;;1.33;;
32200;SDS011;18701;45.588;5.288;2023-09-19T02:47:43;9.93;;;1.73;;
32200;SDS011;18701;45.588;5.288;2023-09-19T02:50:09;10.60;;;1.40;;
32200;SDS011;18701;45.588;5.288;2023-09-19T02:52:44;9.65;;;1.48;;
32200;SDS011;18701;45.588;5.288;2023-09-19T02:55:13;8.15;;;1.08;;
32200;SDS011;18701;45.588;5.288;2023-09-19T02:57:45;3.25;;;0.88;;
32200;SDS011;18701;45.588;5.288;2023-09-19T03:00:15;6.78;;;1.48;;
32200;SDS011;18701;45.588;5.288;2023-09-19T03:02:41;6.25;;;1.48;;
32200;SDS011;18701;45.588;5.288;2023-09-19T03:05:08;10.90;;;1.50;;
32200;SDS011;18701;45.588;5.288;2023-09-19T03:07:36;8.10;;;1.75;;
32200;SDS011;18701;45.588;5.288;2023-09-19T03:10:03;14.70;;;1.90;;
32200;SDS011;18701;45.588;5.288;2023-09-19T03:12:30;9.13;;;1.50;;
32200;SDS011;18701;45.588;5.288;2023-09-19T03:14:57;9.32;;;1.33;;
32200;SDS011;18701;45.588;5.288;2023-09-19T03:17:22;7.53;;;1.52;;
32200;SDS011;18701;45.588;5.288;2023-09-19T03:19:48;10.35;;;1.90;;
32200;SDS011;18701;45.588;5.288;2023-09-19T03:22:14;5.90;;;1.23;;
32200;SDS011;18701;45.588;5.288;2023-09-19T03:24:40;7.68;;;1.48;;
32200;SDS011;18701;45.588;5.288;2023-09-19T03:27:08;9.75;;;1.50;;
32200;SDS011;18701;45.588;5.288;2023-09-19T03:29:41;2.67;;;1.35;;
32200;SDS011;18701;45.588;5.288;2023-09-19T03:32:07;7.60;;;1.65;;
32200;SDS011;18701;45.588;5.288;2023-09-19T03:34:35;9.15;;;1.50;;
32200;SDS011;18701;45.588;5.288;2023-09-19T03:37:03;6.90;;;1.75;;
32200;SDS011;18701;45.588;5.288;2023-09-19T03:39:29;8.82;;;1.77;;
32200;SDS011;18701;45.588;5.288;2023-09-19T03:41:54;6.95;;;1.27;;
32200;SDS011;18701;45.588;5.288;2023-09-19T03:44:20;12.57;;;1.85;;
32200;SDS011;18701;45.588;5.288;2023-09-19T03:46:45;7.20;;;1.10;;
32200;SDS011;18701;45.588;5.288;2023-09-19T03:49:11;6.38;;;0.60;;
32200;SDS011;18701;45.588;5.288;2023-09-19T03:51:37;12.50;;;0.35;;
32200;SDS011;18701;45.588;5.288;2023-09-19T03:54:03;2.45;;;0.20;;
32200;SDS011;18701;45.588;5.288;2023-09-19T03:56:29;1.45;;;0.25;;
32200;SDS011;18701;45.588;5.288;2023-09-19T03:58:54;1.65;;;0.50;;
32200;SDS011;18701;45.588;5.288;2023-09-19T04:01:20;2.20;;;0.20;;
32200;SDS011;18701;45.588;5.288;2023-09-19T04:03:46;1.67;;;0.30;;
32200;SDS011;18701;45.588;5.288;2023-09-19T04:06:16;2.10;;;0.20;;
32200;SDS011;18701;45.588;5.288;2023-09-19T04:08:42;4.00;;;0.25;;
32200;SDS011;18701;45.588;5.288;2023-09-19T04:11:09;1.13;;;0.10;;
32200;SDS011;18701;45.588;5.288;2023-09-19T04:13:35;1.60;;;0.40;;
32200;SDS011;18701;45.588;5.288;2023-09-19T04:16:01;2.05;;;0.20;;
32200;SDS011;18701;45.588;5.288;2023-09-19T04:18:32;3.13;;;0.30;;
32200;SDS011;18701;45.588;5.288;2023-09-19T04:21:02;1.65;;;0.20;;
32200;SDS011;18701;45.588;5.288;2023-09-19T04:23:29;3.53;;;0.40;;
32200;SDS011;18701;45.588;5.288;2023-09-19T04:25:55;3.60;;;0.32;;
32200;SDS011;18701;45.588;5.288;2023-09-19T04:28:20;3.38;;;0.30;;
32200;SDS011;18701;45.588;5.288;2023-09-19T04:30:46;4.22;;;0.60;;
32200;SDS011;18701;45.588;5.288;2023-09-19T04:33:11;3.80;;;0.20;;
32200;SDS011;18701;45.588;5.288;2023-09-19T04:35:39;2.20;;;0.38;;
32200;SDS011;18701;45.588;5.288;2023-09-19T04:38:07;1.80;;;0.65;;
32200;SDS011;18701;45.588;5.288;2023-09-19T04:40:33;4.57;;;0.30;;
32200;SDS011;18701;45.588;5.288;2023-09-19T04:42:59;2.25;;;0.30;;
32200;SDS011;18701;45.588;5.288;2023-09-19T04:45:25;3.83;;;0.30;;
32200;SDS011;18701;45.588;5.288;2023-09-19T04:47:52;4.53;;;0.68;;
32200;SDS011;18701;45.588;5.288;2023-09-19T04:50:18;0.85;;;0.20;;
32200;SDS011;18701;45.588;5.288;2023-09-19T04:52:46;8.70;;;1.45;;
32200;SDS011;18701;45.588;5.288;2023-09-19T04:55:16;1.35;;;0.30;;
32200;SDS011;18701;45.588;5.288;2023-09-19T04:57:49;3.33;;;0.20;;
32200;SDS011;18701;45.588;5.288;2023-09-19T05:00:19;3.15;;;0.30;;
32200;SDS011;18701;45.588;5.288;2023-09-19T05:02:52;2.28;;;0.30;;
32200;SDS011;18701;45.588;5.288;2023-09-19T05:05:22;7.45;;;0.30;;
32200;SDS011;18701;45.588;5.288;2023-09-19T05:07:49;1.48;;;0.20;;
32200;SDS011;18701;45.588;5.288;2023-09-19T05:10:16;2.40;;;0.30;;
32200;SDS011;18701;45.588;5.288;2023-09-19T05:12:43;2.00;;;0.20;;
32200;SDS011;18701;45.588;5.288;2023-09-19T05:15:11;4.72;;;0.20;;
32200;SDS011;18701;45.588;5.288;2023-09-19T05:17:37;5.97;;;0.30;;
32200;SDS011;18701;45.588;5.288;2023-09-19T05:20:04;0.63;;;0.25;;
32200;SDS011;18701;45.588;5.288;2023-09-19T05:22:41;2.15;;;0.60;;
32200;SDS011;18701;45.588;5.288;2023-09-19T05:25:08;2.97;;;0.40;;
32200;SDS011;18701;45.588;5.288;2023-09-19T05:27:34;3.33;;;0.38;;
32200;SDS011;18701;45.588;5.288;2023-09-19T05:30:00;3.97;;;0.30;;
32200;SDS011;18701;45.588;5.288;2023-09-19T05:32:26;2.45;;;0.20;;
32200;SDS011;18701;45.588;5.288;2023-09-19T05:34:51;9.98;;;0.50;;
32200;SDS011;18701;45.588;5.288;2023-09-19T05:37:18;4.05;;;0.70;;
32200;SDS011;18701;45.588;5.288;2023-09-19T05:39:46;8.60;;;0.57;;
32200;SDS011;18701;45.588;5.288;2023-09-19T05:42:11;3.58;;;0.47;;
32200;SDS011;18701;45.588;5.288;2023-09-19T05:44:37;4.30;;;0.32;;
32200;SDS011;18701;45.588;5.288;2023-09-19T05:47:03;2.65;;;0.30;;
32200;SDS011;18701;45.588;5.288;2023-09-19T05:49:29;1.30;;;0.30;;
32200;SDS011;18701;45.588;5.288;2023-09-19T05:51:55;12.25;;;1.05;;
32200;SDS011;18701;45.588;5.288;2023-09-19T05:54:22;3.67;;;0.98;;
32200;SDS011;18701;45.588;5.288;2023-09-19T05:56:48;8.05;;;0.60;;
32200;SDS011;18701;45.588;5.288;2023-09-19T05:59:17;3.72;;;0.50;;
32200;SDS011;18701;45.588;5.288;2023-09-19T06:01:43;1.48;;;0.45;;
32200;SDS011;18701;45.588;5.288;2023-09-19T06:04:08;4.00;;;0.43;;
32200;SDS011;18701;45.588;5.288;2023-09-19T06:06:34;4.78;;;0.70;;
32200;SDS011;18701;45.588;5.288;2023-09-19T06:09:03;9.57;;;0.47;;
32200;SDS011;18701;45.588;5.288;2023-09-19T06:11:34;2.90;;;0.40;;
32200;SDS011;18701;45.588;5.288;2023-09-19T06:14:00;1.75;;;0.40;;
32200;SDS011;18701;45.588;5.288;2023-09-19T06:16:27;2.30;;;0.70;;
32200;SDS011;18701;45.588;5.288;2023-09-19T06:18:54;3.35;;;0.22;;
32200;SDS011;18701;45.588;5.288;2023-09-19T06:21:21;2.38;;;0.38;;
32200;SDS011;18701;45.588;5.288;2023-09-19T06:23:47;3.03;;;0.43;;
32200;SDS011;18701;45.588;5.288;2023-09-19T06:26:12;4.10;;;0.40;;
32200;SDS011;18701;45.588;5.288;2023-09-19T06:28:38;5.07;;;0.40;;
32200;SDS011;18701;45.588;5.288;2023-09-19T06:31:04;5.60;;;0.60;;
32200;SDS011;18701;45.588;5.288;2023-09-19T06:33:34;3.15;;;0.55;;
32200;SDS011;18701;45.588;5.288;2023-09-19T06:36:04;6.40;;;0.70;;
32200;SDS011;18701;45.588;5.288;2023-09-19T06:38:30;8.70;;;0.55;;
32200;SDS011;18701;45.588;5.288;2023-09-19T06:40:59;9.60;;;0.77;;
32200;SDS011;18701;45.588;5.288;2023-09-19T06:43:26;5.85;;;0.50;;
32200;SDS011;18701;45.588;5.288;2023-09-19T06:45:51;10.57;;;0.80;;
32200;SDS011;18701;45.588;5.288;2023-09-19T06:48:19;9.07;;;0.77;;
32200;SDS011;18701;45.588;5.288;2023-09-19T06:50:46;2.80;;;0.57;;
32200;SDS011;18701;45.588;5.288;2023-09-19T06:53:13;2.72;;;0.40;;
32200;SDS011;18701;45.588;5.288;2023-09-19T06:55:39;3.33;;;0.52;;
32200;SDS011;18701;45.588;5.288;2023-09-19T06:58:05;2.83;;;0.30;;
32200;SDS011;18701;45.588;5.288;2023-09-19T07:00:31;4.80;;;0.35;;
32200;SDS011;18701;45.588;5.288;2023-09-19T07:03:02;1.15;;;0.30;;
32200;SDS011;18701;45.588;5.288;2023-09-19T07:05:33;3.88;;;0.38;;
32200;SDS011;18701;45.588;5.288;2023-09-19T07:08:04;4.35;;;0.30;;
32200;SDS011;18701;45.588;5.288;2023-09-19T07:10:31;2.22;;;0.38;;
32200;SDS011;18701;45.588;5.288;2023-09-19T07:13:00;4.28;;;0.40;;
32200;SDS011;18701;45.588;5.288;2023-09-19T07:15:28;1.55;;;0.30;;
32200;SDS011;18701;45.588;5.288;2023-09-19T07:17:56;0.63;;;0.13;;
32200;SDS011;18701;45.588;5.288;2023-09-19T07:20:22;1.52;;;0.20;;
32200;SDS011;18701;45.588;5.288;2023-09-19T07:22:53;0.70;;;0.20;;
32200;SDS011;18701;45.588;5.288;2023-09-19T07:25:24;3.83;;;0.30;;
32200;SDS011;18701;45.588;5.288;2023-09-19T07:27:50;3.35;;;0.25;;
32200;SDS011;18701;45.588;5.288;2023-09-19T07:30:16;3.08;;;0.20;;
32200;SDS011;18701;45.588;5.288;2023-09-19T07:32:42;4.65;;;0.30;;
32200;SDS011;18701;45.588;5.288;2023-09-19T07:35:07;1.58;;;0.20;;
32200;SDS011;18701;45.588;5.288;2023-09-19T07:37:33;5.78;;;0.30;;
32200;SDS011;18701;45.588;5.288;2023-09-19T07:40:01;0.32;;;0.20;;
32200;SDS011;18701;45.588;5.288;2023-09-19T07:42:32;1.85;;;0.20;;
32200;SDS011;18701;45.588;5.288;2023-09-19T07:45:02;2.42;;;0.20;;
32200;SDS011;18701;45.588;5.288;2023-09-19T07:47:28;2.45;;;0.65;;
32200;SDS011;18701;45.588;5.288;2023-09-19T07:49:55;3.72;;;0.45;;
32200;SDS011;18701;45.588;5.288;2023-09-19T07:52:21;8.00;;;0.45;;
32200;SDS011;18701;45.588;5.288;2023-09-19T07:54:47;5.22;;;0.70;;
32200;SDS011;18701;45.588;5.288;2023-09-19T07:57:14;3.17;;;0.30;;
32200;SDS011;18701;45.588;5.288;2023-09-19T07:59:40;7.10;;;0.40;;
32200;SDS011;18701;45.588;5.288;2023-09-19T08:02:07;2.25;;;0.20;;
32200;SDS011;18701;45.588;5.288;2023-09-19T08:04:34;3.40;;;0.40;;
32200;SDS011;18701;45.588;5.288;2023-09-19T08:07:00;1.50;;;0.30;;
32200;SDS011;18701;45.588;5.288;2023-09-19T08:09:28;4.03;;;0.73;;
32200;SDS011;18701;45.588;5.288;2023-09-19T08:11:58;3.78;;;0.22;;
32200;SDS011;18701;45.588;5.288;2023-09-19T08:14:24;4.97;;;0.30;;
32200;SDS011;18701;45.588;5.288;2023-09-19T08:16:51;2.00;;;0.30;;
32200;SDS011;18701;45.588;5.288;2023-09-19T08:19:16;4.43;;;0.20;;
32200;SDS011;18701;45.588;5.288;2023-09-19T08:21:42;2.50;;;0.50;;
32200;SDS011;18701;45.588;5.288;2023-09-19T08:24:12;3.33;;;0.30;;
32200;SDS011;18701;45.588;5.288;2023-09-19T08:26:39;4.55;;;0.60;;
32200;SDS011;18701;45.588;5.288;2023-09-19T08:29:05;4.18;;;0.47;;
32200;SDS011;18701;45.588;5.288;2023-09-19T08:31:33;1.63;;;0.20;;
32200;SDS011;18701;45.588;5.288;2023-09-19T08:33:58;2.58;;;0.20;;
32200;SDS011;18701;45.588;5.288;2023-09-19T08:36:25;7.43;;;0.20;;
32200;SDS011;18701;45.588;5.288;2023-09-19T08:38:50;2.55;;;0.30;;
32200;SDS011;18701;45.588;5.288;2023-09-19T08:41:16;1.58;;;0.20;;
32200;SDS011;18701;45.588;5.288;2023-09-19T08:43:42;0.77;;;0.15;;
32200;SDS011;18701;45.588;5.288;2023-09-19T08:46:11;2.85;;;0.20;;
32200;SDS011;18701;45.588;5.288;2023-09-19T08:48:45;2.28;;;0.20;;
32200;SDS011;18701;45.588;5.288;2023-09-19T08:51:18;2.00;;;0.20;;
32200;SDS011;18701;45.588;5.288;2023-09-19T08:53:52;4.55;;;0.57;;
32200;SDS011;18701;45.588;5.288;2023-09-19T08:56:28;3.33;;;0.30;;
32200;SDS011;18701;45.588;5.288;2023-09-19T08:58:59;2.80;;;0.30;;
32200;SDS011;18701;45.588;5.288;2023-09-19T09:01:27;1.92;;;0.20;;
32200;SDS011;18701;45.588;5.288;2023-09-19T09:03:54;4.20;;;0.50;;
32200;SDS011;18701;45.588;5.288;2023-09-19T09:06:21;4.85;;;0.55;;
32200;SDS011;18701;45.588;5.288;2023-09-19T09:08:48;3.70;;;0.20;;
32200;SDS011;18701;45.588;5.288;2023-09-19T09:11:15;7.93;;;0.52;;
32200;SDS011;18701;45.588;5.288;2023-09-19T09:13:43;3.83;;;0.30;;
32200;SDS011;18701;45.588;5.288;2023-09-19T09:16:12;2.55;;;0.30;;
32200;SDS011;18701;45.588;5.288;2023-09-19T09:18:42;4.70;;;0.30;;
32200;SDS011;18701;45.588;5.288;2023-09-19T09:21:09;4.38;;;0.57;;
32200;SDS011;18701;45.588;5.288;2023-09-19T09:23:35;6.47;;;1.90;;
32200;SDS011;18701;45.588;5.288;2023-09-19T09:26:00;4.90;;;0.70;;
32200;SDS011;18701;45.588;5.288;2023-09-19T09:28:31;5.63;;;0.65;;
32200;SDS011;18701;45.588;5.288;2023-09-19T09:30:58;5.00;;;0.40;;
32200;SDS011;18701;45.588;5.288;2023-09-19T09:33:24;3.78;;;0.47;;
32200;SDS011;18701;45.588;5.288;2023-09-19T09:38:26;7.07;;;0.90;;
32200;SDS011;18701;45.588;5.288;2023-09-19T09:40:53;5.32;;;0.73;;
32200;SDS011;18701;45.588;5.288;2023-09-19T09:43:27;2.13;;;0.70;;
32200;SDS011;18701;45.588;5.288;2023-09-19T09:54:57;5.70;;;0.43;;
32200;SDS011;18701;45.588;5.288;2023-09-19T09:57:31;1.60;;;0.40;;
32200;SDS011;18701;45.588;5.288;2023-09-19T09:59:58;4.03;;;0.45;;
32200;SDS011;18701;45.588;5.288;2023-09-19T10:02:41;4.63;;;0.40;;
32200;SDS011;18701;45.588;5.288;2023-09-19T10:05:13;4.00;;;0.40;;
32200;SDS011;18701;45.588;5.288;2023-09-19T10:07:52;3.05;;;0.35;;
32200;SDS011;18701;45.588;5.288;2023-09-19T10:13:02;7.85;;;0.82;;
32200;SDS011;18701;45.588;5.288;2023-09-19T10:15:31;2.33;;;0.65;;
32200;SDS011;18701;45.588;5.288;2023-09-19T10:17:58;5.78;;;0.52;;
32200;SDS011;18701;45.588;5.288;2023-09-19T10:20:26;6.32;;;0.90;;
32200;SDS011;18701;45.588;5.288;2023-09-19T10:23:00;9.95;;;0.70;;
32200;SDS011;18701;45.588;5.288;2023-09-19T10:25:29;4.63;;;0.68;;
32200;SDS011;18701;45.588;5.288;2023-09-19T10:27:56;5.10;;;0.88;;
32200;SDS011;18701;45.588;5.288;2023-09-19T10:30:24;5.57;;;0.93;;
32200;SDS011;18701;45.588;5.288;2023-09-19T10:32:56;3.10;;;0.55;;
32200;SDS011;18701;45.588;5.288;2023-09-19T10:35:25;3.40;;;0.50;;
32200;SDS011;18701;45.588;5.288;2023-09-19T10:37:51;2.83;;;0.32;;
32200;SDS011;18701;45.588;5.288;2023-09-19T10:40:21;4.60;;;0.77;;
32200;SDS011;18701;45.588;5.288;2023-09-19T10:42:55;4.22;;;0.40;;
32200;SDS011;18701;45.588;5.288;2023-09-19T10:45:32;3.65;;;0.40;;
32200;SDS011;18701;45.588;5.288;2023-09-19T10:48:02;4.82;;;0.50;;
32200;SDS011;18701;45.588;5.288;2023-09-19T10:50:30;1.55;;;0.30;;
32200;SDS011;18701;45.588;5.288;2023-09-19T10:53:02;6.30;;;0.60;;
32200;SDS011;18701;45.588;5.288;2023-09-19T10:55:33;5.22;;;0.50;;
32200;SDS011;18701;45.588;5.288;2023-09-19T10:58:00;3.13;;;0.50;;
32200;SDS011;18701;45.588;5.288;2023-09-19T11:00:29;4.75;;;0.43;;
32200;SDS011;18701;45.588;5.288;2023-09-19T11:05:40;1.70;;;0.45;;
32200;SDS011;18701;45.588;5.288;2023-09-19T11:08:10;3.85;;;0.25;;
32200;SDS011;18701;45.588;5.288;2023-09-19T11:10:47;2.60;;;0.25;;
32200;SDS011;18701;45.588;5.288;2023-09-19T11:13:31;2.35;;;0.30;;
32200;SDS011;18701;45.588;5.288;2023-09-19T11:27:11;1.95;;;0.40;;
32200;SDS011;18701;45.588;5.288;2023-09-19T11:29:38;2.45;;;0.50;;
32200;SDS011;18701;45.588;5.288;2023-09-19T11:32:05;1.52;;;0.28;;
32200;SDS011;18701;45.588;5.288;2023-09-19T11:37:46;1.77;;;0.40;;
32200;SDS011;18701;45.588;5.288;2023-09-19T11:40:07;3.35;;;0.43;;
32200;SDS011;18701;45.588;5.288;2023-09-19T11:42:41;1.75;;;0.30;;
32200;SDS011;18701;45.588;5.288;2023-09-19T11:46:00;4.53;;;0.40;;
32200;SDS011;18701;45.588;5.288;2023-09-19T11:48:15;3.90;;;0.65;;
32200;SDS011;18701;45.588;5.288;2023-09-19T11:50:43;0.93;;;0.15;;
32200;SDS011;18701;45.588;5.288;2023-09-19T11:53:12;3.85;;;1.90;;
32200;SDS011;18701;45.588;5.288;2023-09-19T11:55:39;3.28;;;0.60;;
32200;SDS011;18701;45.588;5.288;2023-09-19T11:58:06;2.92;;;0.30;;
32200;SDS011;18701;45.588;5.288;2023-09-19T12:00:33;1.45;;;0.20;;
32200;SDS011;18701;45.588;5.288;2023-09-19T12:03:05;5.03;;;0.55;;
32200;SDS011;18701;45.588;5.288;2023-09-19T12:05:39;1.98;;;0.30;;
32200;SDS011;18701;45.588;5.288;2023-09-19T12:08:04;3.20;;;0.60;;
32200;SDS011;18701;45.588;5.288;2023-09-19T12:10:34;3.20;;;0.40;;
32200;SDS011;18701;45.588;5.288;2023-09-19T12:13:10;1.55;;;0.40;;
32200;SDS011;18701;45.588;5.288;2023-09-19T12:15:40;1.20;;;0.20;;
32200;SDS011;18701;45.588;5.288;2023-09-19T12:18:10;1.70;;;0.40;;
32200;SDS011;18701;45.588;5.288;2023-09-19T12:20:50;1.65;;;0.25;;
32200;SDS011;18701;45.588;5.288;2023-09-19T12:23:17;1.75;;;0.50;;
32200;SDS011;18701;45.588;5.288;2023-09-19T12:25:44;1.40;;;0.20;;
32200;SDS011;18701;45.588;5.288;2023-09-19T12:28:12;1.42;;;0.30;;
32200;SDS011;18701;45.588;5.288;2023-09-19T12:30:38;7.63;;;0.70;;
32200;SDS011;18701;45.588;5.288;2023-09-19T12:33:19;1.15;;;0.30;;
32200;SDS011;18701;45.588;5.288;2023-09-19T12:35:46;1.50;;;0.20;;
32200;SDS011;18701;45.588;5.288;2023-09-19T12:38:21;3.42;;;0.30;;
32200;SDS011;18701;45.588;5.288;2023-09-19T12:40:49;2.60;;;0.40;;
32200;SDS011;18701;45.588;5.288;2023-09-19T12:43:16;3.20;;;0.30;;
32200;SDS011;18701;45.588;5.288;2023-09-19T12:45:43;1.17;;;0.20;;
32200;SDS011;18701;45.588;5.288;2023-09-19T12:48:23;2.22;;;0.20;;
32200;SDS011;18701;45.588;5.288;2023-09-19T12:53:28;1.85;;;0.17;;
32200;SDS011;18701;45.588;5.288;2023-09-19T12:56:00;2.35;;;0.20;;
32200;SDS011;18701;45.588;5.288;2023-09-19T12:58:26;2.42;;;0.28;;
32200;SDS011;18701;45.588;5.288;2023-09-19T13:00:52;0.80;;;0.20;;
32200;SDS011;18701;45.588;5.288;2023-09-19T13:03:19;2.78;;;0.30;;
32200;SDS011;18701;45.588;5.288;2023-09-19T13:05:52;0.90;;;0.25;;
32200;SDS011;18701;45.588;5.288;2023-09-19T13:08:29;5.72;;;0.20;;
32200;SDS011;18701;45.588;5.288;2023-09-19T13:11:03;2.10;;;0.20;;
32200;SDS011;18701;45.588;5.288;2023-09-19T13:16:19;1.20;;;0.20;;
32200;SDS011;18701;45.588;5.288;2023-09-19T13:18:48;0.32;;;0.10;;
32200;SDS011;18701;45.588;5.288;2023-09-19T13:21:16;0.52;;;0.10;;
32200;SDS011;18701;45.588;5.288;2023-09-19T13:23:52;1.60;;;0.15;;
32200;SDS011;18701;45.588;5.288;2023-09-19T13:26:23;1.33;;;0.10;;
32200;SDS011;18701;45.588;5.288;2023-09-19T13:28:53;3.75;;;0.20;;
32200;SDS011;18701;45.588;5.288;2023-09-19T13:31:19;2.10;;;0.30;;
32200;SDS011;18701;45.588;5.288;2023-09-19T13:33:45;4.53;;;0.20;;
32200;SDS011;18701;45.588;5.288;2023-09-19T13:36:12;2.65;;;0.35;;
32200;SDS011;18701;45.588;5.288;2023-09-19T13:38:41;2.20;;;0.22;;
32200;SDS011;18701;45.588;5.288;2023-09-19T13:41:08;2.20;;;0.10;;
32200;SDS011;18701;45.588;5.288;2023-09-19T13:43:38;0.57;;;0.13;;
32200;SDS011;18701;45.588;5.288;2023-09-19T13:46:04;2.22;;;0.13;;
32200;SDS011;18701;45.588;5.288;2023-09-19T13:48:30;2.72;;;0.10;;
32200;SDS011;18701;45.588;5.288;2023-09-19T13:50:56;0.80;;;0.10;;
32200;SDS011;18701;45.588;5.288;2023-09-19T13:53:21;2.45;;;0.20;;
32200;SDS011;18701;45.588;5.288;2023-09-19T13:55:47;1.58;;;0.13;;
32200;SDS011;18701;45.588;5.288;2023-09-19T13:58:19;2.05;;;0.10;;
32200;SDS011;18701;45.588;5.288;2023-09-19T14:00:47;0.50;;;0.10;;
32200;SDS011;18701;45.588;5.288;2023-09-19T14:03:13;0.20;;;0.00;;
32200;SDS011;18701;45.588;5.288;2023-09-19T14:05:38;0.93;;;0.20;;
32200;SDS011;18701;45.588;5.288;2023-09-19T14:08:04;0.77;;;0.20;;
32200;SDS011;18701;45.588;5.288;2023-09-19T14:10:30;0.57;;;0.10;;
32200;SDS011;18701;45.588;5.288;2023-09-19T14:12:56;0.60;;;0.10;;
32200;SDS011;18701;45.588;5.288;2023-09-19T14:15:26;2.17;;;0.10;;
32200;SDS011;18701;45.588;5.288;2023-09-19T14:17:56;3.58;;;0.10;;
32200;SDS011;18701;45.588;5.288;2023-09-19T14:20:22;0.95;;;0.22;;
32200;SDS011;18701;45.588;5.288;2023-09-19T14:22:48;0.75;;;0.10;;
32200;SDS011;18701;45.588;5.288;2023-09-19T14:25:14;1.08;;;0.10;;
32200;SDS011;18701;45.588;5.288;2023-09-19T14:27:39;0.80;;;0.40;;
32200;SDS011;18701;45.588;5.288;2023-09-19T14:30:06;1.45;;;0.20;;
32200;SDS011;18701;45.588;5.288;2023-09-19T14:32:34;0.47;;;0.13;;
32200;SDS011;18701;45.588;5.288;2023-09-19T14:35:00;1.02;;;0.20;;
32200;SDS011;18701;45.588;5.288;2023-09-19T14:37:27;1.73;;;0.43;;
32200;SDS011;18701;45.588;5.288;2023-09-19T14:39:53;4.10;;;0.20;;
32200;SDS011;18701;45.588;5.288;2023-09-19T14:42:19;1.73;;;0.20;;
32200;SDS011;18701;45.588;5.288;2023-09-19T14:44:45;3.83;;;0.20;;
32200;SDS011;18701;45.588;5.288;2023-09-19T14:47:12;1.70;;;0.30;;
32200;SDS011;18701;45.588;5.288;2023-09-19T14:49:38;1.58;;;0.20;;
32200;SDS011;18701;45.588;5.288;2023-09-19T14:52:09;2.80;;;0.20;;
32200;SDS011;18701;45.588;5.288;2023-09-19T14:54:40;0.93;;;0.30;;
32200;SDS011;18701;45.588;5.288;2023-09-19T14:57:06;1.13;;;0.10;;
32200;SDS011;18701;45.588;5.288;2023-09-19T14:59:33;1.20;;;0.13;;
32200;SDS011;18701;45.588;5.288;2023-09-19T15:02:06;2.08;;;0.10;;
32200;SDS011;18701;45.588;5.288;2023-09-19T15:04:32;0.73;;;0.20;;
32200;SDS011;18701;45.588;5.288;2023-09-19T15:06:58;1.05;;;0.10;;
32200;SDS011;18701;45.588;5.288;2023-09-19T15:09:24;0.75;;;0.20;;
32200;SDS011;18701;45.588;5.288;2023-09-19T15:11:53;2.17;;;0.10;;
32200;SDS011;18701;45.588;5.288;2023-09-19T15:14:20;0.65;;;0.20;;
32200;SDS011;18701;45.588;5.288;2023-09-19T15:16:46;4.20;;;0.20;;
32200;SDS011;18701;45.588;5.288;2023-09-19T15:19:12;5.45;;;1.20;;
32200;SDS011;18701;45.588;5.288;2023-09-19T15:21:38;1.83;;;0.20;;
32200;SDS011;18701;45.588;5.288;2023-09-19T15:24:05;0.65;;;0.10;;
32200;SDS011;18701;45.588;5.288;2023-09-19T15:26:34;0.73;;;0.15;;
32200;SDS011;18701;45.588;5.288;2023-09-19T15:29:03;4.18;;;0.30;;
32200;SDS011;18701;45.588;5.288;2023-09-19T15:31:32;2.10;;;0.20;;
32200;SDS011;18701;45.588;5.288;2023-09-19T15:33:58;1.10;;;0.20;;
32200;SDS011;18701;45.588;5.288;2023-09-19T15:36:24;1.33;;;0.20;;
32200;SDS011;18701;45.588;5.288;2023-09-19T15:41:25;0.80;;;0.28;;
32200;SDS011;18701;45.588;5.288;2023-09-19T15:43:59;1.90;;;0.40;;
32200;SDS011;18701;45.588;5.288;2023-09-19T15:46:26;1.35;;;0.20;;
32200;SDS011;18701;45.588;5.288;2023-09-19T15:48:55;1.25;;;0.10;;
32200;SDS011;18701;45.588;5.288;2023-09-19T15:51:22;1.13;;;0.15;;
32200;SDS011;18701;45.588;5.288;2023-09-19T15:53:49;1.88;;;0.20;;
32200;SDS011;18701;45.588;5.288;2023-09-19T15:56:17;2.15;;;0.20;;